Terminal Aerodrome Forecast
Issued by NWS Louisville, KY

Home | Current Version | Previous Version | Text Only | Print | Product List | Glossary On
Versions: 1 2 3 4 5 6 7 8 9 10 11 12 13 14 15 16 17 18
213
FTUS43 KLMK 151139
TAFBWG
TAF
KBWG 151139Z 1512/1612 20010KT P6SM BKN018
     FM151400 20015G21KT P6SM SCT025 BKN040
     FM151600 24015G21KT P6SM -SHRA SCT030 OVC040
      TEMPO 1517/1519 4SM -SHRA BKN015
     FM151900 30014G20KT P6SM -SHRA BKN025
     FM152100 32012G19KT P6SM SCT025 BKN040
     FM160100 34005KT P6SM FEW030=

USA.gov is the U.S. government's official web portal to all federal, state and local government web resources and services.